sensor_id;sensor_type;location;lat;lon;timestamp;P1;durP1;ratioP1;P2;durP2;ratioP2
48423;SDS011;34232;42.502;26.014;2023-10-19T00:02:07;6.60;;;1.02;;
48423;SDS011;34232;42.502;26.014;2023-10-19T00:04:33;7.70;;;1.20;;
48423;SDS011;34232;42.502;26.014;2023-10-19T00:07:19;5.20;;;1.20;;
48423;SDS011;34232;42.502;26.014;2023-10-19T00:09:44;3.33;;;0.60;;
48423;SDS011;34232;42.502;26.014;2023-10-19T00:12:32;3.10;;;0.98;;
48423;SDS011;34232;42.502;26.014;2023-10-19T00:14:58;11.60;;;1.77;;
48423;SDS011;34232;42.502;26.014;2023-10-19T00:17:24;5.03;;;1.00;;
48423;SDS011;34232;42.502;26.014;2023-10-19T00:19:53;14.38;;;1.27;;
48423;SDS011;34232;42.502;26.014;2023-10-19T00:22:37;14.95;;;2.38;;
48423;SDS011;34232;42.502;26.014;2023-10-19T00:25:04;10.83;;;1.90;;
48423;SDS011;34232;42.502;26.014;2023-10-19T00:27:31;8.23;;;0.95;;
48423;SDS011;34232;42.502;26.014;2023-10-19T00:29:57;4.77;;;1.13;;
48423;SDS011;34232;42.502;26.014;2023-10-19T00:32:49;4.65;;;0.82;;
48423;SDS011;34232;42.502;26.014;2023-10-19T00:38:00;7.30;;;0.60;;
48423;SDS011;34232;42.502;26.014;2023-10-19T00:40:49;4.53;;;0.85;;
48423;SDS011;34232;42.502;26.014;2023-10-19T00:53:19;4.25;;;0.50;;
48423;SDS011;34232;42.502;26.014;2023-10-19T00:55:45;0.73;;;0.53;;
48423;SDS011;34232;42.502;26.014;2023-10-19T01:22:00;6.07;;;0.50;;
48423;SDS011;34232;42.502;26.014;2023-10-19T01:24:29;0.82;;;0.32;;
48423;SDS011;34232;42.502;26.014;2023-10-19T01:34:10;3.58;;;0.65;;
48423;SDS011;34232;42.502;26.014;2023-10-19T01:36:37;0.57;;;0.30;;
48423;SDS011;34232;42.502;26.014;2023-10-19T01:39:09;1.40;;;0.40;;
48423;SDS011;34232;42.502;26.014;2023-10-19T01:41:36;4.40;;;0.65;;
48423;SDS011;34232;42.502;26.014;2023-10-19T01:57:27;2.15;;;0.52;;
48423;SDS011;34232;42.502;26.014;2023-10-19T01:59:53;5.93;;;1.00;;
48423;SDS011;34232;42.502;26.014;2023-10-19T02:19:27;0.68;;;0.43;;
48423;SDS011;34232;42.502;26.014;2023-10-19T02:22:13;4.03;;;0.43;;
48423;SDS011;34232;42.502;26.014;2023-10-19T02:25:01;2.03;;;0.85;;
48423;SDS011;34232;42.502;26.014;2023-10-19T02:47:35;1.58;;;0.85;;
48423;SDS011;34232;42.502;26.014;2023-10-19T02:50:01;1.97;;;0.80;;
48423;SDS011;34232;42.502;26.014;2023-10-19T02:52:35;0.70;;;0.70;;
48423;SDS011;34232;42.502;26.014;2023-10-19T02:55:03;0.63;;;0.47;;
48423;SDS011;34232;42.502;26.014;2023-10-19T02:57:29;1.20;;;0.50;;
48423;SDS011;34232;42.502;26.014;2023-10-19T03:00:15;1.70;;;1.20;;
48423;SDS011;34232;42.502;26.014;2023-10-19T03:19:34;4.05;;;1.10;;
48423;SDS011;34232;42.502;26.014;2023-10-19T03:22:00;1.83;;;1.73;;
48423;SDS011;34232;42.502;26.014;2023-10-19T03:37:52;2.35;;;1.20;;
48423;SDS011;34232;42.502;26.014;2023-10-19T03:40:18;2.50;;;0.47;;
48423;SDS011;34232;42.502;26.014;2023-10-19T03:49:38;1.95;;;0.70;;
48423;SDS011;34232;42.502;26.014;2023-10-19T03:52:30;1.60;;;0.60;;
48423;SDS011;34232;42.502;26.014;2023-10-19T03:54:56;3.92;;;0.80;;
48423;SDS011;34232;42.502;26.014;2023-10-19T03:57:48;2.08;;;0.63;;
48423;SDS011;34232;42.502;26.014;2023-10-19T04:00:19;0.90;;;0.28;;
48423;SDS011;34232;42.502;26.014;2023-10-19T04:17:09;7.75;;;5.30;;
48423;SDS011;34232;42.502;26.014;2023-10-19T04:29:41;4.85;;;2.03;;
48423;SDS011;34232;42.502;26.014;2023-10-19T04:38:16;6.85;;;1.65;;
48423;SDS011;34232;42.502;26.014;2023-10-19T04:40:43;3.67;;;2.08;;
48423;SDS011;34232;42.502;26.014;2023-10-19T04:43:08;2.00;;;1.10;;
48423;SDS011;34232;42.502;26.014;2023-10-19T04:46:14;1.98;;;1.38;;
48423;SDS011;34232;42.502;26.014;2023-10-19T05:29:17;2.38;;;1.00;;
48423;SDS011;34232;42.502;26.014;2023-10-19T05:31:43;2.03;;;1.87;;
48423;SDS011;34232;42.502;26.014;2023-10-19T05:34:09;6.40;;;2.20;;
48423;SDS011;34232;42.502;26.014;2023-10-19T05:36:35;6.00;;;3.93;;
48423;SDS011;34232;42.502;26.014;2023-10-19T05:49:43;9.88;;;4.95;;
48423;SDS011;34232;42.502;26.014;2023-10-19T05:52:28;8.23;;;3.92;;
48423;SDS011;34232;42.502;26.014;2023-10-19T05:54:54;6.57;;;4.20;;
48423;SDS011;34232;42.502;26.014;2023-10-19T05:57:20;7.53;;;3.73;;
48423;SDS011;34232;42.502;26.014;2023-10-19T05:59:47;6.25;;;3.38;;
48423;SDS011;34232;42.502;26.014;2023-10-19T06:02:13;6.77;;;3.73;;
48423;SDS011;34232;42.502;26.014;2023-10-19T06:08:00;4.43;;;3.03;;
48423;SDS011;34232;42.502;26.014;2023-10-19T06:10:27;8.60;;;4.33;;
48423;SDS011;34232;42.502;26.014;2023-10-19T06:13:13;5.80;;;4.40;;
48423;SDS011;34232;42.502;26.014;2023-10-19T06:15:39;4.05;;;3.63;;
48423;SDS011;34232;42.502;26.014;2023-10-19T06:18:05;6.97;;;4.63;;
48423;SDS011;34232;42.502;26.014;2023-10-19T06:20:30;7.67;;;4.83;;
48423;SDS011;34232;42.502;26.014;2023-10-19T06:22:58;6.83;;;3.50;;
48423;SDS011;34232;42.502;26.014;2023-10-19T06:25:31;6.20;;;3.92;;
48423;SDS011;34232;42.502;26.014;2023-10-19T06:27:57;7.80;;;4.40;;
48423;SDS011;34232;42.502;26.014;2023-10-19T06:30:24;4.40;;;3.00;;
48423;SDS011;34232;42.502;26.014;2023-10-19T06:32:52;3.47;;;2.50;;
48423;SDS011;34232;42.502;26.014;2023-10-19T06:35:25;3.88;;;2.75;;
48423;SDS011;34232;42.502;26.014;2023-10-19T06:37:52;1.95;;;1.83;;
48423;SDS011;34232;42.502;26.014;2023-10-19T06:40:18;3.97;;;1.75;;
48423;SDS011;34232;42.502;26.014;2023-10-19T06:56:11;5.88;;;1.77;;
48423;SDS011;34232;42.502;26.014;2023-10-19T06:58:36;1.57;;;1.00;;
48423;SDS011;34232;42.502;26.014;2023-10-19T07:01:08;2.97;;;1.33;;
48423;SDS011;34232;42.502;26.014;2023-10-19T07:09:43;4.22;;;1.10;;
48423;SDS011;34232;42.502;26.014;2023-10-19T07:12:09;1.33;;;1.03;;
48423;SDS011;34232;42.502;26.014;2023-10-19T07:14:35;6.35;;;1.30;;
48423;SDS011;34232;42.502;26.014;2023-10-19T07:17:01;1.33;;;0.87;;
48423;SDS011;34232;42.502;26.014;2023-10-19T07:19:26;3.47;;;1.80;;
48423;SDS011;34232;42.502;26.014;2023-10-19T07:21:52;1.90;;;1.53;;
48423;SDS011;34232;42.502;26.014;2023-10-19T07:24:24;4.85;;;2.50;;
48423;SDS011;34232;42.502;26.014;2023-10-19T07:26:50;6.30;;;3.20;;
48423;SDS011;34232;42.502;26.014;2023-10-19T07:29:38;7.70;;;3.35;;
48423;SDS011;34232;42.502;26.014;2023-10-19T07:32:08;8.18;;;4.45;;
48423;SDS011;34232;42.502;26.014;2023-10-19T07:34:36;9.00;;;4.60;;
48423;SDS011;34232;42.502;26.014;2023-10-19T07:37:02;6.80;;;5.17;;
48423;SDS011;34232;42.502;26.014;2023-10-19T07:41:55;10.98;;;6.57;;
48423;SDS011;34232;42.502;26.014;2023-10-19T07:44:22;14.95;;;7.15;;
48423;SDS011;34232;42.502;26.014;2023-10-19T07:46:47;12.10;;;6.70;;
48423;SDS011;34232;42.502;26.014;2023-10-19T07:49:14;14.05;;;8.20;;
48423;SDS011;34232;42.502;26.014;2023-10-19T07:51:46;12.68;;;7.70;;
48423;SDS011;34232;42.502;26.014;2023-10-19T07:54:12;14.13;;;7.80;;
48423;SDS011;34232;42.502;26.014;2023-10-19T07:56:38;12.55;;;8.85;;
48423;SDS011;34232;42.502;26.014;2023-10-19T07:59:04;18.98;;;9.68;;
48423;SDS011;34232;42.502;26.014;2023-10-19T08:01:32;15.85;;;6.93;;
48423;SDS011;34232;42.502;26.014;2023-10-19T08:03:57;7.40;;;5.33;;
48423;SDS011;34232;42.502;26.014;2023-10-19T08:06:23;6.53;;;4.90;;
48423;SDS011;34232;42.502;26.014;2023-10-19T08:08:49;10.87;;;5.93;;
48423;SDS011;34232;42.502;26.014;2023-10-19T08:12:16;9.82;;;5.80;;
48423;SDS011;34232;42.502;26.014;2023-10-19T08:14:42;14.55;;;8.07;;
48423;SDS011;34232;42.502;26.014;2023-10-19T08:17:07;15.23;;;8.53;;
48423;SDS011;34232;42.502;26.014;2023-10-19T08:19:38;11.02;;;7.93;;
48423;SDS011;34232;42.502;26.014;2023-10-19T08:22:07;21.58;;;10.77;;
48423;SDS011;34232;42.502;26.014;2023-10-19T08:24:52;11.77;;;7.63;;
48423;SDS011;34232;42.502;26.014;2023-10-19T08:27:19;9.93;;;7.72;;
48423;SDS011;34232;42.502;26.014;2023-10-19T08:32:11;10.15;;;7.32;;
48423;SDS011;34232;42.502;26.014;2023-10-19T08:34:39;14.70;;;8.32;;
48423;SDS011;34232;42.502;26.014;2023-10-19T08:37:06;9.75;;;8.27;;
48423;SDS011;34232;42.502;26.014;2023-10-19T08:39:32;13.83;;;9.33;;
48423;SDS011;34232;42.502;26.014;2023-10-19T08:42:04;12.98;;;8.60;;
48423;SDS011;34232;42.502;26.014;2023-10-19T08:54:37;15.27;;;7.25;;
48423;SDS011;34232;42.502;26.014;2023-10-19T08:57:03;8.50;;;6.00;;
48423;SDS011;34232;42.502;26.014;2023-10-19T08:59:29;11.65;;;6.78;;
48423;SDS011;34232;42.502;26.014;2023-10-19T09:04:28;8.80;;;6.03;;
48423;SDS011;34232;42.502;26.014;2023-10-19T09:06:56;8.70;;;6.20;;
48423;SDS011;34232;42.502;26.014;2023-10-19T09:09:22;10.17;;;6.40;;
48423;SDS011;34232;42.502;26.014;2023-10-19T09:11:50;7.57;;;6.57;;
48423;SDS011;34232;42.502;26.014;2023-10-19T09:14:32;13.00;;;7.20;;
48423;SDS011;34232;42.502;26.014;2023-10-19T09:17:08;11.63;;;6.63;;
48423;SDS011;34232;42.502;26.014;2023-10-19T09:20:09;14.30;;;7.93;;
48423;SDS011;34232;42.502;26.014;2023-10-19T09:59:49;4.88;;;4.00;;
48423;SDS011;34232;42.502;26.014;2023-10-19T10:02:22;4.10;;;3.38;;
48423;SDS011;34232;42.502;26.014;2023-10-19T10:04:48;4.27;;;3.83;;
48423;SDS011;34232;42.502;26.014;2023-10-19T10:07:14;4.35;;;3.13;;
48423;SDS011;34232;42.502;26.014;2023-10-19T10:26:21;5.20;;;3.17;;
48423;SDS011;34232;42.502;26.014;2023-10-19T10:32:39;4.20;;;3.53;;
48423;SDS011;34232;42.502;26.014;2023-10-19T10:38:19;4.20;;;3.22;;
48423;SDS011;34232;42.502;26.014;2023-10-19T10:40:45;5.18;;;3.45;;
48423;SDS011;34232;42.502;26.014;2023-10-19T10:43:15;4.28;;;3.67;;
48423;SDS011;34232;42.502;26.014;2023-10-19T10:45:43;4.07;;;3.67;;
48423;SDS011;34232;42.502;26.014;2023-10-19T11:04:45;6.72;;;5.13;;
48423;SDS011;34232;42.502;26.014;2023-10-19T11:09:45;8.23;;;5.82;;
48423;SDS011;34232;42.502;26.014;2023-10-19T11:12:12;7.18;;;5.60;;
48423;SDS011;34232;42.502;26.014;2023-10-19T11:14:53;8.77;;;5.38;;
48423;SDS011;34232;42.502;26.014;2023-10-19T11:27:30;7.65;;;5.47;;
48423;SDS011;34232;42.502;26.014;2023-10-19T11:30:00;7.87;;;6.03;;
48423;SDS011;34232;42.502;26.014;2023-10-19T11:32:38;5.82;;;5.07;;
48423;SDS011;34232;42.502;26.014;2023-10-19T11:35:04;6.15;;;4.90;;
48423;SDS011;34232;42.502;26.014;2023-10-19T11:37:54;5.88;;;4.22;;
48423;SDS011;34232;42.502;26.014;2023-10-19T11:40:23;4.68;;;4.07;;
48423;SDS011;34232;42.502;26.014;2023-10-19T11:42:49;8.68;;;4.78;;
48423;SDS011;34232;42.502;26.014;2023-10-19T11:45:15;13.38;;;5.93;;
48423;SDS011;34232;42.502;26.014;2023-10-19T11:47:45;6.50;;;4.68;;
48423;SDS011;34232;42.502;26.014;2023-10-19T11:50:35;6.45;;;3.42;;
48423;SDS011;34232;42.502;26.014;2023-10-19T12:03:02;7.75;;;4.60;;
48423;SDS011;34232;42.502;26.014;2023-10-19T12:05:28;7.22;;;3.80;;
48423;SDS011;34232;42.502;26.014;2023-10-19T12:07:54;5.90;;;3.83;;
48423;SDS011;34232;42.502;26.014;2023-10-19T12:10:21;6.32;;;4.15;;
48423;SDS011;34232;42.502;26.014;2023-10-19T12:12:53;11.43;;;3.45;;
48423;SDS011;34232;42.502;26.014;2023-10-19T12:15:19;9.93;;;4.13;;
48423;SDS011;34232;42.502;26.014;2023-10-19T12:27:52;7.18;;;3.55;;
48423;SDS011;34232;42.502;26.014;2023-10-19T12:30:17;10.13;;;3.23;;
48423;SDS011;34232;42.502;26.014;2023-10-19T12:33:20;7.57;;;3.78;;
48423;SDS011;34232;42.502;26.014;2023-10-19T12:37:31;7.30;;;3.72;;
48423;SDS011;34232;42.502;26.014;2023-10-19T12:54:30;10.57;;;4.20;;
48423;SDS011;34232;42.502;26.014;2023-10-19T12:56:56;10.50;;;4.27;;
48423;SDS011;34232;42.502;26.014;2023-10-19T12:59:21;7.77;;;4.13;;
48423;SDS011;34232;42.502;26.014;2023-10-19T13:02:08;9.25;;;4.43;;
48423;SDS011;34232;42.502;26.014;2023-10-19T13:24:45;7.80;;;5.07;;
48423;SDS011;34232;42.502;26.014;2023-10-19T13:27:11;7.05;;;4.82;;
48423;SDS011;34232;42.502;26.014;2023-10-19T13:29:36;6.67;;;4.60;;
48423;SDS011;34232;42.502;26.014;2023-10-19T13:32:05;6.60;;;4.20;;
48423;SDS011;34232;42.502;26.014;2023-10-19T13:34:30;7.65;;;4.28;;
48423;SDS011;34232;42.502;26.014;2023-10-19T13:36:56;7.30;;;4.77;;
48423;SDS011;34232;42.502;26.014;2023-10-19T13:39:23;6.18;;;3.75;;
48423;SDS011;34232;42.502;26.014;2023-10-19T13:41:53;5.88;;;4.65;;
48423;SDS011;34232;42.502;26.014;2023-10-19T13:47:40;3.88;;;3.17;;
48423;SDS011;34232;42.502;26.014;2023-10-19T13:50:07;5.50;;;3.90;;
48423;SDS011;34232;42.502;26.014;2023-10-19T14:19:24;3.67;;;2.97;;
48423;SDS011;34232;42.502;26.014;2023-10-19T14:21:51;5.97;;;4.13;;
48423;SDS011;34232;42.502;26.014;2023-10-19T14:24:37;4.65;;;3.80;;
48423;SDS011;34232;42.502;26.014;2023-10-19T14:33:09;3.65;;;3.35;;
48423;SDS011;34232;42.502;26.014;2023-10-19T14:35:36;10.85;;;4.78;;
48423;SDS011;34232;42.502;26.014;2023-10-19T14:38:04;3.60;;;3.13;;
48423;SDS011;34232;42.502;26.014;2023-10-19T14:40:31;5.28;;;3.13;;
48423;SDS011;34232;42.502;26.014;2023-10-19T14:42:57;3.72;;;2.58;;
48423;SDS011;34232;42.502;26.014;2023-10-19T14:45:26;3.20;;;2.67;;
48423;SDS011;34232;42.502;26.014;2023-10-19T14:48:15;4.60;;;3.10;;
48423;SDS011;34232;42.502;26.014;2023-10-19T14:50:44;5.43;;;3.65;;
48423;SDS011;34232;42.502;26.014;2023-10-19T14:53:45;4.20;;;3.05;;
48423;SDS011;34232;42.502;26.014;2023-10-19T14:58:06;2.97;;;2.60;;
48423;SDS011;34232;42.502;26.014;2023-10-19T15:00:41;3.97;;;3.28;;
48423;SDS011;34232;42.502;26.014;2023-10-19T15:03:40;5.50;;;3.42;;
48423;SDS011;34232;42.502;26.014;2023-10-19T15:06:25;6.25;;;5.68;;
48423;SDS011;34232;42.502;26.014;2023-10-19T15:09:40;5.95;;;5.45;;
48423;SDS011;34232;42.502;26.014;2023-10-19T15:12:48;11.77;;;3.78;;
48423;SDS011;34232;42.502;26.014;2023-10-19T15:45:41;21.40;;;12.73;;
48423;SDS011;34232;42.502;26.014;2023-10-19T15:48:41;13.55;;;8.45;;
48423;SDS011;34232;42.502;26.014;2023-10-19T15:51:36;5.00;;;4.50;;
48423;SDS011;34232;42.502;26.014;2023-10-19T15:54:29;5.88;;;4.05;;
48423;SDS011;34232;42.502;26.014;2023-10-19T15:57:17;4.00;;;3.67;;
48423;SDS011;34232;42.502;26.014;2023-10-19T16:00:24;5.15;;;3.75;;
48423;SDS011;34232;42.502;26.014;2023-10-19T16:19:47;8.98;;;4.35;;
48423;SDS011;34232;42.502;26.014;2023-10-19T16:22:14;11.05;;;4.53;;
